Time;durP1;ratioP1;P1;durP2;ratioP2;P2;SDS_P1;SDS_P2;PMS_P1;PMS_P2;Temp;Humidity;BMP_temperature;BMP_pressure;BME280_temperature;BME280_humidity;BME280_pressure;Samples;Min_cycle;Max_cycle;Signal;HPM_P1;HPM_P2
2023/07/12 00:00:34;;;;;;;3.20;2.90;;;;;;;23.62;100.00;97439.91;1224317;75;2929885;-66
2023/07/12 00:03:09;;;;;;;4.10;3.70;;;;;;;23.15;100.00;97430.34;1224522;75;2920369;-66
2023/07/12 00:05:42;;;;;;;5.30;4.80;;;;;;;23.36;100.00;97422.41;1223837;75;2925318;-65
2023/07/12 00:08:23;;;;;;;5.05;4.55;;;;;;;23.46;100.00;97405.75;1224580;75;2922929;-68
2023/07/12 00:10:58;;;;;;;4.10;3.70;;;;;;;23.47;100.00;97396.03;1224054;75;2928604;-65
2023/07/12 00:13:30;;;;;;;4.90;4.20;;;;;;;23.42;100.00;97387.91;1223287;75;2923772;-68
2023/07/12 00:16:06;;;;;;;4.75;4.25;;;;;;;23.34;100.00;97377.53;1223456;67;2921527;-65
2023/07/12 00:18:38;;;;;;;4.40;4.00;;;;;;;23.25;100.00;97372.56;1223975;75;2924101;-64
2023/07/12 00:21:15;;;;;;;5.15;4.10;;;;;;;23.36;100.00;97363.00;1223457;75;2930577;-68
2023/07/12 00:23:47;;;;;;;3.75;3.45;;;;;;;23.31;100.00;97361.91;1223914;75;2921338;-64
2023/07/12 00:26:26;;;;;;;4.45;3.95;;;;;;;23.32;100.00;97368.25;1223543;75;2923158;-65
2023/07/12 00:29:01;;;;;;;7.40;6.45;;;;;;;22.91;100.00;97373.88;1223735;75;2931812;-65
2023/07/12 00:31:37;;;;;;;8.15;7.35;;;;;;;23.00;100.00;97371.84;1223348;75;2935983;-65
2023/07/12 00:34:09;;;;;;;6.50;5.90;;;;;;;23.23;100.00;97363.28;1223578;75;2930669;-68
2023/07/12 00:36:42;;;;;;;6.00;5.40;;;;;;;23.22;100.00;97361.81;1222794;75;2930162;-66
2023/07/12 00:39:15;;;;;;;5.30;4.80;;;;;;;23.02;100.00;97350.41;1223072;75;2933818;-67
2023/07/12 00:42:03;;;;;;;5.40;4.75;;;;;;;23.14;100.00;97348.63;1224001;75;2922728;-67
2023/07/12 00:44:40;;;;;;;5.20;4.70;;;;;;;22.91;100.00;97350.81;1223513;75;2922495;-66
2023/07/12 00:47:18;;;;;;;8.60;5.50;;;;;;;22.74;100.00;97355.00;1223717;75;2927374;-64
2023/07/12 00:49:51;;;;;;;7.30;6.60;;;;;;;22.53;100.00;97371.28;1224092;75;2921716;-68
2023/07/12 00:52:25;;;;;;;7.95;6.45;;;;;;;22.56;100.00;97372.94;1223305;75;2920985;-65
2023/07/12 00:55:01;;;;;;;6.75;6.05;;;;;;;22.69;100.00;97369.19;1224272;75;2928825;-67
2023/07/12 00:57:35;;;;;;;6.80;6.10;;;;;;;22.61;100.00;97391.53;1223848;75;2930855;-65
2023/07/12 01:00:13;;;;;;;7.55;6.85;;;;;;;22.35;100.00;97406.72;1223704;75;2923363;-68
2023/07/12 01:02:50;;;;;;;8.20;7.40;;;;;;;22.38;100.00;97402.78;1225177;75;2917952;-67
2023/07/12 01:05:22;;;;;;;6.20;5.55;;;;;;;22.85;100.00;97412.44;1224116;75;2921176;-65
2023/07/12 01:07:55;;;;;;;5.15;4.65;;;;;;;23.01;100.00;97412.38;1222248;75;2924206;-65
2023/07/12 01:10:28;;;;;;;4.35;3.95;;;;;;;23.03;100.00;97420.94;1223990;75;2929959;-67
2023/07/12 01:13:00;;;;;;;5.10;4.60;;;;;;;22.96;100.00;97414.78;1223681;75;2928763;-66
2023/07/12 01:15:33;;;;;;;4.30;3.90;;;;;;;22.93;100.00;97415.94;1223519;75;2919251;-64
2023/07/12 01:18:10;;;;;;;3.75;3.45;;;;;;;23.08;100.00;97417.91;1224303;75;2929043;-66
2023/07/12 01:20:45;;;;;;;3.55;3.25;;;;;;;23.06;100.00;97426.13;1223816;75;2922876;-66
2023/07/12 01:23:20;;;;;;;6.20;5.45;;;;;;;22.85;100.00;97418.03;1223410;75;2928220;-67
2023/07/12 01:26:13;;;;;;;5.00;4.50;;;;;;;23.03;100.00;97410.50;1223509;75;2934410;-65
2023/07/12 01:28:46;;;;;;;4.60;4.20;;;;;;;23.01;100.00;97401.22;1224282;75;2926584;-67
2023/07/12 01:31:19;;;;;;;4.20;3.80;;;;;;;22.97;100.00;97401.59;1223513;75;2921959;-67
2023/07/12 01:33:52;;;;;;;3.80;3.50;;;;;;;23.03;100.00;97404.91;1223989;75;2923882;-64
2023/07/12 01:36:27;;;;;;;3.80;3.50;;;;;;;23.01;100.00;97404.00;1223881;75;2920394;-66
2023/07/12 01:39:06;;;;;;;4.15;3.55;;;;;;;22.89;100.00;97412.78;1224150;75;2920839;-66
2023/07/12 01:41:39;;;;;;;5.30;4.80;;;;;;;22.77;100.00;97398.50;1224616;75;2918877;-68
2023/07/12 01:44:12;;;;;;;5.35;4.85;;;;;;;22.89;100.00;97392.50;1222904;75;2934073;-68
2023/07/12 01:46:45;;;;;;;4.80;4.30;;;;;;;22.84;100.00;97408.16;1223127;75;2921118;-67
2023/07/12 01:49:17;;;;;;;6.55;5.85;;;;;;;22.43;100.00;97424.16;1224106;75;2927032;-65
2023/07/12 01:51:53;;;;;;;10.45;8.90;;;;;;;22.06;100.00;97440.41;1223759;75;2926402;-67
2023/07/12 01:54:28;;;;;;;11.20;9.55;;;;;;;22.16;100.00;97470.50;1224030;75;2929422;-65
2023/07/12 01:57:00;;;;;;;11.30;10.20;;;;;;;22.31;100.00;97474.00;1224038;75;2918361;-67
2023/07/12 01:59:33;;;;;;;10.60;9.50;;;;;;;22.51;100.00;97454.81;1222874;75;2926843;-65
2023/07/12 02:02:06;;;;;;;11.95;10.30;;;;;;;22.55;100.00;97438.44;1224431;75;2918694;-71
2023/07/12 02:04:39;;;;;;;12.15;10.85;;;;;;;22.57;100.00;97440.66;1223947;75;2936004;-67
2023/07/12 02:07:11;;;;;;;14.20;10.20;;;;;;;22.72;100.00;97460.13;1224505;75;2930736;-66
2023/07/12 02:10:13;;;;;;;15.00;10.30;;;;;;;22.93;100.00;97463.38;1223945;75;2931160;-67
2023/07/12 02:12:46;;;;;;;10.85;9.75;;;;;;;22.97;100.00;97452.59;1224356;75;2928117;-67
2023/07/12 02:15:19;;;;;;;11.00;9.80;;;;;;;23.09;100.00;97447.34;1223968;75;2935732;-67
2023/07/12 02:17:52;;;;;;;11.95;9.55;;;;;;;23.04;100.00;97451.09;1223793;75;2921941;-67
2023/07/12 02:20:25;;;;;;;10.15;8.85;;;;;;;23.24;100.00;97445.75;1224285;75;2921553;-66
2023/07/12 02:22:57;;;;;;;12.25;8.85;;;;;;;23.08;100.00;97457.00;1224722;75;2922327;-67
2023/07/12 02:25:32;;;;;;;9.25;8.35;;;;;;;23.15;100.00;97469.44;1224848;75;2918060;-69
2023/07/12 02:28:05;;;;;;;7.25;6.55;;;;;;;23.04;100.00;97455.91;1224361;75;2923507;-65
2023/07/12 02:30:40;;;;;;;6.55;5.95;;;;;;;23.19;100.00;97469.81;1224131;75;2933291;-66
2023/07/12 02:33:13;;;;;;;5.65;5.15;;;;;;;23.23;100.00;97480.56;1224119;75;2930027;-68
2023/07/12 02:35:46;;;;;;;9.35;7.10;;;;;;;23.19;100.00;97472.59;1224673;75;2919348;-67
2023/07/12 02:38:18;;;;;;;7.35;6.65;;;;;;;23.40;100.00;97463.88;1223826;75;2923608;-65
2023/07/12 02:40:53;;;;;;;6.05;5.45;;;;;;;23.36;100.00;97478.25;1224472;75;2918697;-65
2023/07/12 02:43:26;;;;;;;5.70;4.85;;;;;;;23.43;100.00;97484.34;1224291;75;2933211;-67
2023/07/12 02:45:59;;;;;;;6.05;4.85;;;;;;;23.40;100.00;97491.81;1224326;75;2929435;-68
2023/07/12 02:48:31;;;;;;;6.25;5.65;;;;;;;23.37;100.00;97487.38;1223890;75;2922624;-67
2023/07/12 02:51:04;;;;;;;10.45;8.75;;;;;;;23.16;100.00;97496.06;1224076;75;2922125;-67
2023/07/12 02:53:37;;;;;;;8.05;7.25;;;;;;;23.33;100.00;97501.00;1224800;75;2920255;-67
2023/07/12 02:56:13;;;;;;;9.90;7.60;;;;;;;23.08;100.00;97498.88;1223843;75;2924134;-64
2023/07/12 02:58:45;;;;;;;8.05;7.25;;;;;;;23.20;100.00;97507.59;1224805;75;2923339;-68
2023/07/12 03:01:18;;;;;;;6.30;5.55;;;;;;;23.36;100.00;97511.06;1224082;75;2917313;-67
2023/07/12 03:03:51;;;;;;;8.45;6.50;;;;;;;23.26;100.00;97502.53;1224925;75;2919804;-67
2023/07/12 03:06:24;;;;;;;6.65;6.05;;;;;;;23.33;100.00;97501.75;1224186;75;2921461;-66
2023/07/12 03:08:56;;;;;;;5.95;5.45;;;;;;;23.55;100.00;97502.91;1224238;75;2939033;-65
2023/07/12 03:11:31;;;;;;;5.10;4.70;;;;;;;23.59;100.00;97497.69;1224167;75;2927065;-65
2023/07/12 03:14:04;;;;;;;4.90;4.40;;;;;;;23.63;100.00;97493.75;1223856;75;2924922;-66
2023/07/12 03:16:37;;;;;;;4.35;3.95;;;;;;;23.66;100.00;97498.19;1224693;75;2918620;-66
2023/07/12 03:19:09;;;;;;;4.15;3.75;;;;;;;23.67;100.00;97497.63;1225114;75;2929397;-66
2023/07/12 03:21:42;;;;;;;3.70;3.40;;;;;;;23.66;100.00;97495.38;1223545;75;2920865;-67
2023/07/12 03:24:15;;;;;;;4.65;3.90;;;;;;;23.56;100.00;97492.47;1224208;75;2920451;-68
2023/07/12 03:26:51;;;;;;;5.20;4.70;;;;;;;23.37;100.00;97485.31;1223816;75;2924175;-66
2023/07/12 03:29:23;;;;;;;8.10;7.20;;;;;;;23.17;100.00;97495.50;1223082;75;2940260;-67
2023/07/12 03:31:56;;;;;;;7.50;6.80;;;;;;;23.43;100.00;97504.69;1224210;75;2921900;-66
2023/07/12 03:34:31;;;;;;;6.45;5.85;;;;;;;23.29;100.00;97498.59;1223779;75;2922212;-67
2023/07/12 03:37:04;;;;;;;9.20;8.30;;;;;;;23.02;100.00;97511.56;1222738;75;2923923;-67
2023/07/12 03:39:36;;;;;;;7.35;6.65;;;;;;;23.18;100.00;97518.56;1223932;75;2939009;-68
2023/07/12 03:42:12;;;;;;;8.50;7.45;;;;;;;22.89;100.00;97520.91;1224163;75;2921987;-65
2023/07/12 03:44:45;;;;;;;10.45;8.65;;;;;;;22.96;100.00;97522.94;1223353;75;2926866;-65
2023/07/12 03:47:17;;;;;;;8.10;6.90;;;;;;;23.25;100.00;97533.81;1223263;75;2921635;-66
2023/07/12 03:49:50;;;;;;;8.95;7.55;;;;;;;23.42;100.00;97530.38;1223221;75;2927547;-67
2023/07/12 03:52:22;;;;;;;7.80;7.05;;;;;;;23.46;100.00;97534.25;1223670;75;2940312;-66
2023/07/12 03:54:55;;;;;;;6.35;5.65;;;;;;;23.56;100.00;97543.50;1223683;75;2931389;-68
2023/07/12 03:57:30;;;;;;;6.90;6.20;;;;;;;23.31;100.00;97559.50;1224392;75;2928971;-67
2023/07/12 04:00:06;;;;;;;8.35;7.45;;;;;;;23.27;100.00;97576.63;1223906;75;2926605;-66
2023/07/12 04:02:40;;;;;;;7.45;6.70;;;;;;;23.41;100.00;97571.56;1223362;75;2924726;-67
2023/07/12 04:05:13;;;;;;;8.45;7.55;;;;;;;23.36;100.00;97564.88;1223452;75;2920346;-66
2023/07/12 04:07:45;;;;;;;12.00;10.70;;;;;;;22.72;100.00;97580.13;1211098;75;3848929;-65
2023/07/12 04:10:18;;;;;;;12.20;11.00;;;;;;;22.68;100.00;97574.94;1222520;75;2928738;-68
2023/07/12 04:12:53;;;;;;;11.50;10.00;;;;;;;23.05;100.00;97577.47;1223644;75;2941538;-67
2023/07/12 04:15:26;;;;;;;11.75;9.75;;;;;;;23.17;100.00;97576.50;1223897;75;2923165;-67
2023/07/12 04:17:58;;;;;;;10.00;8.10;;;;;;;23.22;100.00;97568.47;1223823;75;2926805;-65
2023/07/12 04:20:31;;;;;;;10.05;9.00;;;;;;;22.99;100.00;97576.94;1223971;75;2922936;-66
2023/07/12 04:23:04;;;;;;;11.05;9.95;;;;;;;22.93;100.00;97577.09;1223138;75;2922027;-67
2023/07/12 04:25:36;;;;;;;10.05;9.00;;;;;;;23.03;100.00;97560.53;1223211;75;2928224;-65
2023/07/12 04:28:12;;;;;;;10.10;9.05;;;;;;;23.19;100.00;97553.59;1223204;75;2938590;-66
2023/07/12 04:30:45;;;;;;;9.15;7.95;;;;;;;23.36;100.00;97545.31;1223447;75;2923139;-70
2023/07/12 04:33:17;;;;;;;10.15;8.60;;;;;;;23.27;100.00;97545.91;1224081;75;2921948;-66
2023/07/12 04:35:50;;;;;;;9.10;8.20;;;;;;;23.33;100.00;97551.28;1223112;75;2922783;-66
2023/07/12 04:38:22;;;;;;;10.20;8.75;;;;;;;23.26;100.00;97538.84;1223111;75;2933399;-68
2023/07/12 04:40:59;;;;;;;10.15;8.75;;;;;;;23.36;100.00;97517.38;1223570;75;2920878;-66
2023/07/12 04:43:34;;;;;;;8.30;7.50;;;;;;;23.27;100.00;97515.19;1223960;75;2934451;-67
2023/07/12 04:46:07;;;;;;;14.05;9.40;;;;;;;22.86;100.00;97522.03;1222994;75;2926011;-68
2023/07/12 04:48:40;;;;;;;12.30;10.50;;;;;;;22.43;100.00;97538.50;1224123;75;2922739;-65
2023/07/12 04:51:12;;;;;;;13.45;10.65;;;;;;;22.52;100.00;97534.41;1223552;75;2922681;-66
2023/07/12 04:53:47;;;;;;;11.80;10.45;;;;;;;22.74;100.00;97522.44;1223867;75;2925016;-66
2023/07/12 04:56:20;;;;;;;12.75;10.80;;;;;;;22.64;100.00;97518.75;1223522;75;2926597;-67
2023/07/12 04:58:56;;;;;;;14.30;10.80;;;;;;;22.61;100.00;97502.38;1223743;75;2922248;-66
2023/07/12 05:01:29;;;;;;;11.20;10.00;;;;;;;22.87;100.00;97493.56;1223092;75;2928441;-66
2023/07/12 05:04:02;;;;;;;11.95;9.80;;;;;;;22.76;100.00;97471.66;1224042;75;2923155;-66
2023/07/12 05:06:35;;;;;;;12.60;10.00;;;;;;;22.66;100.00;97438.03;1223427;75;2920320;-66
2023/07/12 05:09:08;;;;;;;11.00;9.80;;;;;;;22.66;100.00;97429.66;1223137;75;2928257;-67
2023/07/12 05:11:40;;;;;;;12.05;10.80;;;;;;;22.76;100.00;97415.84;1223186;75;2926811;-66
2023/07/12 05:14:16;;;;;;;11.85;8.95;;;;;;;22.80;100.00;97407.06;1223063;75;2929935;-67
2023/07/12 05:16:48;;;;;;;17.10;13.40;;;;;;;22.66;100.00;97401.75;1223869;75;2929525;-66
2023/07/12 05:19:21;;;;;;;10.95;9.85;;;;;;;22.88;100.00;97382.66;1224219;75;2924067;-67
2023/07/12 05:21:53;;;;;;;7.95;7.15;;;;;;;23.30;100.00;97391.16;1222919;75;2954631;-67
2023/07/12 05:24:26;;;;;;;7.15;6.45;;;;;;;23.23;100.00;97424.72;1224101;75;2924307;-68
2023/07/12 05:26:59;;;;;;;8.40;7.50;;;;;;;23.28;100.00;97421.72;1224402;75;2919694;-67
2023/07/12 05:29:34;;;;;;;9.95;8.60;;;;;;;23.12;100.00;97415.47;1224004;75;2928085;-67
2023/07/12 05:32:08;;;;;;;9.45;8.30;;;;;;;23.21;100.00;97414.13;1224515;75;2925790;-65
2023/07/12 05:34:45;;;;;;;7.80;7.00;;;;;;;23.48;100.00;97417.09;1223625;75;2938198;-67
2023/07/12 05:37:18;;;;;;;5.85;5.25;;;;;;;23.49;100.00;97431.81;1224549;75;2919013;-66
2023/07/12 05:39:50;;;;;;;9.10;7.15;;;;;;;23.36;100.00;97441.22;1224234;75;2927009;-66
2023/07/12 05:42:23;;;;;;;9.30;7.65;;;;;;;23.29;100.00;97445.53;1224092;75;2922707;-68
2023/07/12 05:44:58;;;;;;;8.70;7.40;;;;;;;23.35;100.00;97454.41;1223609;75;2920418;-67
2023/07/12 05:47:31;;;;;;;8.10;7.15;;;;;;;23.32;100.00;97452.03;1224076;75;2924369;-66
2023/07/12 05:50:03;;;;;;;7.25;6.55;;;;;;;23.47;100.00;97448.38;1223356;75;2944496;-66
2023/07/12 05:52:36;;;;;;;10.75;7.20;;;;;;;23.17;100.00;97450.09;1223987;75;2927478;-67
2023/07/12 05:55:12;;;;;;;7.90;7.10;;;;;;;23.18;100.00;97445.97;1223927;75;2926902;-66
2023/07/12 05:57:45;;;;;;;8.30;7.40;;;;;;;23.34;100.00;97443.84;1222816;75;2924452;-67
2023/07/12 06:00:21;;;;;;;8.40;7.50;;;;;;;23.28;100.00;97446.09;1223532;75;2925359;-67
2023/07/12 06:02:54;;;;;;;7.90;6.50;;;;;;;23.42;100.00;97464.06;1223833;75;2928674;-65
2023/07/12 06:05:27;;;;;;;7.90;6.80;;;;;;;23.48;100.00;97484.16;1223694;75;2925229;-67
2023/07/12 06:08:00;;;;;;;8.65;6.15;;;;;;;23.31;100.00;97486.88;1223646;75;2925640;-65
2023/07/12 06:10:32;;;;;;;6.30;5.00;;;;;;;23.41;100.00;97482.16;1218898;75;3140423;-66
2023/07/12 06:13:05;;;;;;;6.55;5.85;;;;;;;23.44;100.00;97499.81;1223599;75;2920820;-67
2023/07/12 06:15:41;;;;;;;8.35;6.35;;;;;;;23.44;100.00;97508.22;1223695;75;2920880;-69
2023/07/12 06:18:14;;;;;;;10.75;7.60;;;;;;;23.43;100.00;97518.66;1222596;75;2920903;-66
2023/07/12 06:20:46;;;;;;;9.70;7.40;;;;;;;23.40;100.00;97514.19;1223395;67;2926118;-66
2023/07/12 06:23:19;;;;;;;8.70;7.05;;;;;;;23.43;100.00;97503.91;1223917;75;2923522;-66
2023/07/12 06:25:51;;;;;;;7.75;6.75;;;;;;;23.55;100.00;97511.31;1224213;75;2926238;-65
2023/07/12 06:28:24;;;;;;;7.60;5.80;;;;;;;23.81;100.00;97509.28;1223308;75;2928348;-68
2023/07/12 06:30:59;;;;;;;7.65;5.85;;;;;;;23.70;100.00;97515.31;1224136;75;2921409;-67
2023/07/12 06:33:31;;;;;;;5.55;5.05;;;;;;;24.02;100.00;97514.53;1223898;75;2927677;-69
2023/07/12 06:36:04;;;;;;;6.65;5.25;;;;;;;24.29;100.00;97513.91;1221205;75;2948888;-68
2023/07/12 06:38:37;;;;;;;6.25;4.90;;;;;;;24.35;100.00;97517.22;1224297;75;2926053;-67
2023/07/12 06:41:09;;;;;;;4.95;4.25;;;;;;;24.60;100.00;97528.38;1224443;75;2927050;-67
2023/07/12 06:43:42;;;;;;;5.60;4.70;;;;;;;24.59;100.00;97512.91;1224948;75;2927361;-68
2023/07/12 06:46:17;;;;;;;6.50;5.45;;;;;;;24.32;100.00;97507.19;1223804;75;2933445;-64
2023/07/12 06:48:50;;;;;;;7.70;5.85;;;;;;;24.26;100.00;97487.09;1224268;75;2959426;-68
2023/07/12 06:51:23;;;;;;;7.75;5.95;;;;;;;24.43;100.00;97487.84;1224372;75;2927570;-67
2023/07/12 06:53:55;;;;;;;5.15;4.65;;;;;;;24.97;100.00;97476.06;1224105;75;2931639;-68
2023/07/12 06:56:28;;;;;;;5.75;4.70;;;;;;;24.86;100.00;97474.50;1224593;75;2918970;-66
2023/07/12 06:59:02;;;;;;;4.95;4.45;;;;;;;25.23;100.00;97471.06;1224713;75;2929311;-68
2023/07/12 07:01:37;;;;;;;8.00;6.15;;;;;;;24.96;100.00;97454.97;1224534;75;2930416;-68
2023/07/12 07:04:10;;;;;;;6.35;5.65;;;;;;;25.41;100.00;97449.34;1224355;75;2919862;-65
2023/07/12 07:06:42;;;;;;;5.75;5.10;;;;;;;25.41;100.00;97438.13;1224193;75;2925406;-67
2023/07/12 07:09:15;;;;;;;4.90;4.45;;;;;;;25.86;98.95;97436.69;1223944;75;2926788;-68
2023/07/12 07:11:48;;;;;;;5.45;4.50;;;;;;;25.97;99.10;97412.19;1224744;75;2923386;-66
2023/07/12 07:14:29;;;;;;;6.05;4.45;;;;;;;25.96;94.37;97427.56;1223976;75;2909830;-69
2023/07/12 07:17:05;;;;;;;5.90;4.15;;;;;;;26.12;94.61;97409.84;1219692;75;2924110;-66
2023/07/12 07:19:38;;;;;;;6.10;5.20;;;;;;;26.14;93.00;97415.63;1223380;83;2931815;-70
2023/07/12 07:22:21;;;;;;;6.18;4.70;;;;;;;26.06;90.06;97408.66;1192523;75;5258215;-67
2023/07/12 07:24:54;;;;;;;7.90;5.10;;;;;;;25.58;94.29;97410.00;1094699;75;5879797;-70
2023/07/12 07:27:31;;;;;;;6.57;4.95;;;;;;;26.03;90.10;97413.38;1129798;75;5889792;-65
2023/07/12 07:30:04;;;;;;;5.30;4.45;;;;;;;26.13;86.86;97419.75;1141038;75;5214049;-70
2023/07/12 07:32:39;;;;;;;6.50;4.10;;;;;;;26.23;86.01;97428.16;1223477;75;2926776;-70
2023/07/12 07:35:12;;;;;;;5.60;4.40;;;;;;;26.42;84.01;97421.09;1223657;75;2928105;-71
2023/07/12 07:37:45;;;;;;;4.65;4.15;;;;;;;26.63;85.96;97420.53;1224068;75;2921864;-72
2023/07/12 07:40:18;;;;;;;7.35;4.40;;;;;;;26.77;83.45;97404.66;1224023;75;2922452;-71
2023/07/12 07:42:51;;;;;;;3.95;3.50;;;;;;;26.88;82.58;97398.44;1223938;75;2932953;-70
2023/07/12 07:45:24;;;;;;;5.25;3.95;;;;;;;26.87;77.37;97388.53;1224001;75;2921040;-71
2023/07/12 07:47:59;;;;;;;4.45;3.80;;;;;;;27.00;76.44;97376.06;1223944;75;2925873;-71
2023/07/12 07:50:32;;;;;;;6.05;3.65;;;;;;;26.77;76.38;97382.19;1223940;75;2924217;-68
2023/07/12 07:53:05;;;;;;;5.45;3.75;;;;;;;27.13;76.60;97372.78;1223644;75;2924819;-70
2023/07/12 07:55:43;;;;;;;4.75;3.95;;;;;;;26.95;74.05;97363.09;1224020;75;2932842;-67
2023/07/12 07:58:16;;;;;;;6.00;4.25;;;;;;;26.76;72.33;97372.31;1224082;75;2964291;-68
2023/07/12 08:00:48;;;;;;;7.60;4.20;;;;;;;26.68;71.58;97368.94;1224253;75;2925547;-69
2023/07/12 08:03:24;;;;;;;8.60;4.10;;;;;;;26.95;71.22;97372.25;1223273;75;2923116;-66
2023/07/12 08:06:02;;;;;;;4.75;3.60;;;;;;;27.47;71.80;97376.50;1224079;75;2925645;-69
2023/07/12 08:08:35;;;;;;;5.70;3.95;;;;;;;27.45;68.16;97379.19;1224441;75;2921054;-68
2023/07/12 08:11:10;;;;;;;7.50;3.90;;;;;;;27.46;67.45;97375.03;1224074;75;2924430;-69
2023/07/12 08:13:43;;;;;;;5.30;4.00;;;;;;;27.56;67.55;97378.50;1223994;75;2931265;-71
2023/07/12 08:16:15;;;;;;;6.10;3.60;;;;;;;27.59;67.20;97374.53;1224309;75;2922773;-69
2023/07/12 08:18:50;;;;;;;3.50;3.10;;;;;;;27.93;64.42;97378.19;1223541;75;2920699;-68
2023/07/12 08:21:23;;;;;;;6.70;3.75;;;;;;;28.02;65.62;97385.06;1223275;75;2930914;-70
2023/07/12 08:23:56;;;;;;;6.75;4.05;;;;;;;28.18;65.72;97369.25;1223516;75;2922401;-68
2023/07/12 08:26:28;;;;;;;5.35;4.05;;;;;;;27.96;64.85;97376.25;1222974;75;2924033;-67
2023/07/12 08:29:01;;;;;;;5.20;3.80;;;;;;;28.26;63.60;97377.47;1222757;75;2937179;-71
2023/07/12 08:31:33;;;;;;;4.30;3.40;;;;;;;28.62;61.00;97373.50;1223739;75;2921957;-72
2023/07/12 08:34:09;;;;;;;4.00;3.50;;;;;;;28.94;61.67;97385.31;1224366;75;2918215;-70
2023/07/12 08:36:41;;;;;;;5.75;3.90;;;;;;;28.61;62.25;97386.09;1223578;75;2926466;-69
2023/07/12 08:39:14;;;;;;;5.15;3.65;;;;;;;28.87;61.95;97395.47;1223248;75;2936577;-70
2023/07/12 08:41:47;;;;;;;5.20;3.75;;;;;;;29.01;61.53;97392.06;1223539;75;2935183;-67
2023/07/12 08:44:19;;;;;;;4.45;3.15;;;;;;;29.27;59.68;97410.63;1224079;75;2923974;-70
2023/07/12 08:46:56;;;;;;;3.95;3.15;;;;;;;29.59;59.13;97401.91;1222982;75;2929520;-68
2023/07/12 08:49:31;;;;;;;5.20;3.70;;;;;;;29.70;60.16;97410.38;1223487;75;2939803;-70
2023/07/12 08:52:05;;;;;;;3.25;2.95;;;;;;;30.18;57.92;97413.13;1223898;75;2921468;-70
2023/07/12 08:54:38;;;;;;;3.15;2.55;;;;;;;30.20;55.37;97405.50;1223918;75;2924748;-71
2023/07/12 08:57:20;;;;;;;4.45;3.00;;;;;;;30.19;55.16;97406.88;1223723;75;2925923;-70
2023/07/12 09:00:05;;;;;;;3.75;3.00;;;;;;;30.59;56.88;97407.69;1223822;75;2926629;-71
2023/07/12 09:02:39;;;;;;;4.10;2.85;;;;;;;30.66;53.86;97414.44;1224428;75;2923933;-68
2023/07/12 09:05:20;;;;;;;5.95;2.85;;;;;;;30.82;54.88;97415.34;1224229;75;2924192;-67
2023/07/12 09:08:00;;;;;;;4.60;3.30;;;;;;;30.84;57.18;97412.66;1223681;75;2934109;-69
2023/07/12 09:10:48;;;;;;;4.25;3.45;;;;;;;31.26;58.51;97413.47;1223420;75;2933673;-71
2023/07/12 09:13:21;;;;;;;4.25;3.35;;;;;;;30.65;59.38;97405.22;1223544;75;2931857;-71
2023/07/12 09:15:56;;;;;;;4.50;3.65;;;;;;;31.20;57.91;97408.25;1223823;75;2924801;-70
2023/07/12 09:18:34;;;;;;;4.20;3.05;;;;;;;31.08;57.10;97410.41;1223376;75;2930121;-69
2023/07/12 09:21:23;;;;;;;5.65;3.60;;;;;;;30.98;57.15;97412.69;1223931;75;2922155;-69
2023/07/12 09:24:03;;;;;;;4.85;3.05;;;;;;;30.69;54.82;97402.63;1224171;75;2926154;-72
2023/07/12 09:26:36;;;;;;;3.35;2.00;;;;;;;31.56;51.32;97399.50;1222559;75;2923914;-69
2023/07/12 09:29:22;;;;;;;3.60;2.05;;;;;;;32.15;49.08;97388.34;1223552;75;2939862;-70
2023/07/12 09:32:00;;;;;;;3.30;1.90;;;;;;;32.48;49.72;97393.50;1221456;75;2920142;-71
2023/07/12 09:34:40;;;;;;;3.10;2.70;;;;;;;31.35;50.62;97389.19;1221785;75;2929802;-71
2023/07/12 09:37:20;;;;;;;3.75;3.00;;;;;;;31.24;55.92;97398.50;1222500;75;2920766;-67
2023/07/12 09:40:01;;;;;;;4.95;3.00;;;;;;;31.27;60.38;97402.91;1221634;75;2928602;-69
2023/07/12 09:42:34;;;;;;;4.90;3.65;;;;;;;30.61;62.56;97407.81;1222609;75;2922047;-70
2023/07/12 09:45:14;;;;;;;5.05;3.50;;;;;;;30.47;63.57;97407.75;1223736;75;2927976;-72
2023/07/12 09:48:00;;;;;;;4.80;3.90;;;;;;;30.24;66.23;97425.50;1223502;75;2929946;-69
2023/07/12 09:50:43;;;;;;;4.45;3.20;;;;;;;30.37;66.90;97438.25;1223264;75;2928158;-69
2023/07/12 09:53:31;;;;;;;6.40;4.15;;;;;;;30.30;67.05;97450.56;1224182;75;2922213;-70
2023/07/12 09:56:32;;;;;;;7.05;4.30;;;;;;;30.61;66.05;97457.94;1223584;75;2927565;-70
2023/07/12 09:59:13;;;;;;;5.30;4.10;;;;;;;30.91;67.04;97462.50;1223741;75;2924615;-69
2023/07/12 10:01:56;;;;;;;4.30;3.20;;;;;;;31.19;65.67;97471.81;1224323;75;2922563;-69
2023/07/12 10:04:42;;;;;;;5.30;4.20;;;;;;;30.46;67.92;97470.53;1223681;75;2925886;-69
2023/07/12 10:07:23;;;;;;;7.10;4.75;;;;;;;30.52;68.64;97477.28;1222391;75;2928593;-72
2023/07/12 10:10:00;;;;;;;5.50;4.10;;;;;;;30.89;66.97;97462.41;1223514;75;2922599;-71
2023/07/12 10:12:42;;;;;;;4.90;4.10;;;;;;;31.04;65.26;97449.78;1223699;75;2931066;-69
2023/07/12 10:15:17;;;;;;;5.30;4.25;;;;;;;31.17;65.37;97463.22;1223641;75;2923335;-69
2023/07/12 10:17:50;;;;;;;6.70;3.80;;;;;;;30.89;64.84;97456.75;1224626;75;2941476;-69
2023/07/12 10:20:27;;;;;;;4.20;3.50;;;;;;;30.88;64.08;97452.44;1223134;75;2936526;-71
2023/07/12 10:23:00;;;;;;;4.70;3.70;;;;;;;31.71;62.28;97438.50;1223547;75;2931121;-69
2023/07/12 10:25:44;;;;;;;6.90;4.45;;;;;;;31.21;61.43;97437.97;1223668;75;2926892;-71
2023/07/12 10:28:26;;;;;;;5.45;3.30;;;;;;;31.55;59.40;97424.22;1224179;75;2929482;-69
2023/07/12 10:31:02;;;;;;;3.95;3.05;;;;;;;32.12;58.94;97426.44;1224040;75;2925946;-71
2023/07/12 10:33:41;;;;;;;4.60;3.30;;;;;;;32.32;55.22;97423.88;1223396;75;2925897;-69
2023/07/12 10:36:19;;;;;;;4.45;3.00;;;;;;;32.34;53.81;97420.41;1223576;75;2928626;-68
2023/07/12 10:38:52;;;;;;;5.25;3.60;;;;;;;32.88;55.51;97413.81;1224120;75;2934229;-70
2023/07/12 10:41:37;;;;;;;3.95;3.05;;;;;;;32.92;53.25;97413.28;1224049;75;2922216;-70
2023/07/12 10:44:19;;;;;;;2.95;2.55;;;;;;;33.51;52.14;97410.31;1224051;75;2930384;-70
2023/07/12 10:46:57;;;;;;;3.80;2.80;;;;;;;33.37;52.05;97409.66;1224620;75;2940452;-69
2023/07/12 10:49:47;;;;;;;3.95;2.80;;;;;;;33.67;46.96;97398.22;1223998;75;2929795;-69
2023/07/12 10:52:31;;;;;;;2.80;1.90;;;;;;;33.93;43.72;97387.97;1223928;75;2927136;-68
2023/07/12 10:55:23;;;;;;;2.50;1.80;;;;;;;34.38;41.95;97391.97;1223416;75;2923078;-74
2023/07/12 10:58:30;;;;;;;2.75;1.65;;;;;;;34.10;43.34;97389.41;1223756;75;2936930;-68
2023/07/12 11:01:03;;;;;;;5.55;2.30;;;;;;;33.92;43.75;97383.69;1224082;75;2928182;-71
2023/07/12 11:03:47;;;;;;;4.15;2.10;;;;;;;34.01;43.31;97384.78;1224133;75;2922029;-71
2023/07/12 11:06:28;;;;;;;3.20;1.65;;;;;;;34.26;40.29;97380.13;1223826;75;2931369;-72
2023/07/12 11:09:11;;;;;;;3.30;1.50;;;;;;;34.00;40.25;97380.44;1223525;75;2933365;-71
2023/07/12 11:11:51;;;;;;;2.80;1.70;;;;;;;33.86;40.50;97389.09;1222883;75;2929294;-71
2023/07/12 11:14:53;;;;;;;4.40;1.60;;;;;;;33.45;38.89;97390.16;1223791;75;2922656;-69
2023/07/12 11:17:30;;;;;;;2.15;1.65;;;;;;;33.53;39.91;97382.00;1223650;75;2929911;-67
2023/07/12 11:20:12;;;;;;;3.40;1.75;;;;;;;33.44;40.44;97380.19;1224240;75;2931282;-70
2023/07/12 11:23:02;;;;;;;4.15;1.60;;;;;;;32.93;41.13;97388.47;1224000;75;2916754;-73
2023/07/12 11:25:57;;;;;;;6.15;1.90;;;;;;;33.01;41.84;97406.63;1224058;75;2917739;-69
2023/07/12 11:28:51;;;;;;;3.55;1.75;;;;;;;33.39;41.53;97404.09;1223873;75;2943713;-70
2023/07/12 11:31:36;;;;;;;5.70;2.00;;;;;;;32.87;41.41;97401.00;1223486;75;2928275;-68
2023/07/12 11:34:18;;;;;;;4.00;2.30;;;;;;;32.85;42.40;97391.69;1224395;75;2930229;-70
2023/07/12 11:36:57;;;;;;;2.90;1.60;;;;;;;33.35;42.18;97383.31;1223308;75;2922098;-68
2023/07/12 11:39:30;;;;;;;4.30;1.60;;;;;;;33.18;42.11;97373.34;1224122;75;2926061;-70
2023/07/12 11:42:08;;;;;;;4.00;1.50;;;;;;;33.56;40.74;97380.03;1222967;75;2928361;-70
2023/07/12 11:44:40;;;;;;;;;;;;;;;34.16;40.00;97369.06;1225256;75;2927725;-70
2023/07/12 11:47:16;;;;;;;2.10;1.60;;;;;;;33.94;39.14;97368.84;1223375;75;2929256;-66
2023/07/12 11:49:49;;;;;;;4.10;1.40;;;;;;;34.03;39.58;97355.69;1223781;75;2929526;-68